sensor_id;sensor_type;location;lat;lon;timestamp;temperature;humidity
59146;DHT22;44928;53.074;6.646;2023-08-20T00:00:55;17.20;99.90
59146;DHT22;44928;53.074;6.646;2023-08-20T00:03:22;17.10;99.90
59146;DHT22;44928;53.074;6.646;2023-08-20T00:05:48;17.00;99.90
59146;DHT22;44928;53.074;6.646;2023-08-20T00:08:14;16.90;99.90
59146;DHT22;44928;53.074;6.646;2023-08-20T00:10:40;16.90;99.90
59146;DHT22;44928;53.074;6.646;2023-08-20T00:13:05;16.90;99.90
59146;DHT22;44928;53.074;6.646;2023-08-20T00:15:31;16.90;99.90
59146;DHT22;44928;53.074;6.646;2023-08-20T00:17:57;16.80;99.90
59146;DHT22;44928;53.074;6.646;2023-08-20T00:20:24;16.80;99.90
59146;DHT22;44928;53.074;6.646;2023-08-20T00:22:50;16.80;99.90
59146;DHT22;44928;53.074;6.646;2023-08-20T00:25:17;16.80;99.90
59146;DHT22;44928;53.074;6.646;2023-08-20T00:27:43;16.70;99.90
59146;DHT22;44928;53.074;6.646;2023-08-20T00:30:10;16.70;99.90
59146;DHT22;44928;53.074;6.646;2023-08-20T00:32:36;16.70;99.90
59146;DHT22;44928;53.074;6.646;2023-08-20T00:35:03;16.70;99.90
59146;DHT22;44928;53.074;6.646;2023-08-20T00:37:31;16.60;99.90
59146;DHT22;44928;53.074;6.646;2023-08-20T00:39:57;16.60;99.90
59146;DHT22;44928;53.074;6.646;2023-08-20T00:42:25;16.60;99.90
59146;DHT22;44928;53.074;6.646;2023-08-20T00:44:52;16.50;99.90
59146;DHT22;44928;53.074;6.646;2023-08-20T00:47:18;16.40;99.90
59146;DHT22;44928;53.074;6.646;2023-08-20T00:49:46;16.40;99.90
59146;DHT22;44928;53.074;6.646;2023-08-20T00:52:14;16.40;99.90
59146;DHT22;44928;53.074;6.646;2023-08-20T00:54:41;16.40;99.90
59146;DHT22;44928;53.074;6.646;2023-08-20T00:57:08;16.40;99.90
59146;DHT22;44928;53.074;6.646;2023-08-20T00:59:34;16.30;99.90
59146;DHT22;44928;53.074;6.646;2023-08-20T01:02:00;16.30;99.90
59146;DHT22;44928;53.074;6.646;2023-08-20T01:04:27;16.30;99.90
59146;DHT22;44928;53.074;6.646;2023-08-20T01:12:19;16.20;99.90
59146;DHT22;44928;53.074;6.646;2023-08-20T01:14:45;16.10;99.90
59146;DHT22;44928;53.074;6.646;2023-08-20T01:17:11;16.20;99.90
59146;DHT22;44928;53.074;6.646;2023-08-20T01:19:37;16.20;99.90
59146;DHT22;44928;53.074;6.646;2023-08-20T01:30:01;16.10;99.90
59146;DHT22;44928;53.074;6.646;2023-08-20T01:32:29;16.10;99.90
59146;DHT22;44928;53.074;6.646;2023-08-20T01:34:55;16.10;99.90
59146;DHT22;44928;53.074;6.646;2023-08-20T01:37:22;16.10;99.90
59146;DHT22;44928;53.074;6.646;2023-08-20T01:39:48;16.10;99.90
59146;DHT22;44928;53.074;6.646;2023-08-20T01:42:14;16.00;99.90
59146;DHT22;44928;53.074;6.646;2023-08-20T01:44:40;16.00;99.90
59146;DHT22;44928;53.074;6.646;2023-08-20T01:47:06;16.00;99.90
59146;DHT22;44928;53.074;6.646;2023-08-20T01:49:31;15.90;99.90
59146;DHT22;44928;53.074;6.646;2023-08-20T01:51:57;15.90;99.90
59146;DHT22;44928;53.074;6.646;2023-08-20T01:54:23;15.90;99.90
59146;DHT22;44928;53.074;6.646;2023-08-20T01:56:49;15.80;99.90
59146;DHT22;44928;53.074;6.646;2023-08-20T01:59:14;15.80;99.90
59146;DHT22;44928;53.074;6.646;2023-08-20T02:01:40;15.80;99.90
59146;DHT22;44928;53.074;6.646;2023-08-20T02:04:06;15.80;99.90
59146;DHT22;44928;53.074;6.646;2023-08-20T02:06:32;15.80;99.90
59146;DHT22;44928;53.074;6.646;2023-08-20T02:08:58;15.80;99.90
59146;DHT22;44928;53.074;6.646;2023-08-20T02:11:23;15.80;99.90
59146;DHT22;44928;53.074;6.646;2023-08-20T02:13:49;15.90;99.90
59146;DHT22;44928;53.074;6.646;2023-08-20T02:16:15;15.80;99.90
59146;DHT22;44928;53.074;6.646;2023-08-20T02:18:41;15.80;99.90
59146;DHT22;44928;53.074;6.646;2023-08-20T02:21:07;15.80;99.90
59146;DHT22;44928;53.074;6.646;2023-08-20T02:23:33;15.80;99.90
59146;DHT22;44928;53.074;6.646;2023-08-20T02:25:59;15.80;99.90
59146;DHT22;44928;53.074;6.646;2023-08-20T02:28:26;15.80;99.90
59146;DHT22;44928;53.074;6.646;2023-08-20T02:30:52;15.80;99.90
59146;DHT22;44928;53.074;6.646;2023-08-20T02:33:18;15.70;99.90
59146;DHT22;44928;53.074;6.646;2023-08-20T02:35:43;15.70;99.90
59146;DHT22;44928;53.074;6.646;2023-08-20T02:38:09;15.70;99.90
59146;DHT22;44928;53.074;6.646;2023-08-20T02:40:40;15.70;99.90
59146;DHT22;44928;53.074;6.646;2023-08-20T02:43:06;15.60;99.90
59146;DHT22;44928;53.074;6.646;2023-08-20T02:45:32;15.60;99.90
59146;DHT22;44928;53.074;6.646;2023-08-20T02:47:57;15.60;99.90
59146;DHT22;44928;53.074;6.646;2023-08-20T02:50:23;15.60;99.90
59146;DHT22;44928;53.074;6.646;2023-08-20T02:52:49;15.60;99.90
59146;DHT22;44928;53.074;6.646;2023-08-20T02:55:15;15.60;99.90
59146;DHT22;44928;53.074;6.646;2023-08-20T02:57:41;15.60;99.90
59146;DHT22;44928;53.074;6.646;2023-08-20T03:00:07;15.60;99.90
59146;DHT22;44928;53.074;6.646;2023-08-20T03:02:36;15.60;99.90
59146;DHT22;44928;53.074;6.646;2023-08-20T03:05:02;15.60;99.90
59146;DHT22;44928;53.074;6.646;2023-08-20T03:07:31;15.60;99.90
59146;DHT22;44928;53.074;6.646;2023-08-20T03:09:57;15.60;99.90
59146;DHT22;44928;53.074;6.646;2023-08-20T03:12:23;15.60;99.90
59146;DHT22;44928;53.074;6.646;2023-08-20T03:14:49;15.60;99.90
59146;DHT22;44928;53.074;6.646;2023-08-20T03:17:15;15.60;99.90
59146;DHT22;44928;53.074;6.646;2023-08-20T03:19:56;15.60;99.90
59146;DHT22;44928;53.074;6.646;2023-08-20T03:22:23;15.60;99.90
59146;DHT22;44928;53.074;6.646;2023-08-20T03:24:50;15.60;99.90
59146;DHT22;44928;53.074;6.646;2023-08-20T03:27:16;15.60;99.90
59146;DHT22;44928;53.074;6.646;2023-08-20T03:29:42;15.60;99.90
59146;DHT22;44928;53.074;6.646;2023-08-20T03:32:09;15.60;99.90
59146;DHT22;44928;53.074;6.646;2023-08-20T03:34:35;15.50;99.90
59146;DHT22;44928;53.074;6.646;2023-08-20T03:37:01;15.50;99.90
59146;DHT22;44928;53.074;6.646;2023-08-20T03:39:27;15.50;99.90
59146;DHT22;44928;53.074;6.646;2023-08-20T03:41:53;15.50;99.90
59146;DHT22;44928;53.074;6.646;2023-08-20T03:44:19;15.50;99.90
59146;DHT22;44928;53.074;6.646;2023-08-20T03:46:45;15.50;99.90
59146;DHT22;44928;53.074;6.646;2023-08-20T03:49:11;15.40;99.90
59146;DHT22;44928;53.074;6.646;2023-08-20T03:51:37;15.40;99.90
59146;DHT22;44928;53.074;6.646;2023-08-20T03:54:03;15.40;99.90
59146;DHT22;44928;53.074;6.646;2023-08-20T03:56:29;15.40;99.90
59146;DHT22;44928;53.074;6.646;2023-08-20T03:58:55;15.40;99.90
59146;DHT22;44928;53.074;6.646;2023-08-20T04:01:21;15.40;99.90
59146;DHT22;44928;53.074;6.646;2023-08-20T04:03:47;15.40;99.90
59146;DHT22;44928;53.074;6.646;2023-08-20T04:06:14;15.40;99.90
59146;DHT22;44928;53.074;6.646;2023-08-20T04:08:40;15.30;99.90
59146;DHT22;44928;53.074;6.646;2023-08-20T04:11:06;15.30;99.90
59146;DHT22;44928;53.074;6.646;2023-08-20T04:13:32;15.30;99.90
59146;DHT22;44928;53.074;6.646;2023-08-20T04:15:58;15.30;99.90
59146;DHT22;44928;53.074;6.646;2023-08-20T04:18:23;15.30;99.90
59146;DHT22;44928;53.074;6.646;2023-08-20T04:20:53;15.30;99.90
59146;DHT22;44928;53.074;6.646;2023-08-20T04:23:19;15.30;99.90
59146;DHT22;44928;53.074;6.646;2023-08-20T04:25:46;15.30;99.90
59146;DHT22;44928;53.074;6.646;2023-08-20T04:28:12;15.30;99.90
59146;DHT22;44928;53.074;6.646;2023-08-20T04:30:38;15.30;99.90
59146;DHT22;44928;53.074;6.646;2023-08-20T04:33:04;15.30;99.90
59146;DHT22;44928;53.074;6.646;2023-08-20T04:35:30;15.20;99.90
59146;DHT22;44928;53.074;6.646;2023-08-20T04:37:56;15.20;99.90
59146;DHT22;44928;53.074;6.646;2023-08-20T04:40:22;15.20;99.90
59146;DHT22;44928;53.074;6.646;2023-08-20T04:42:48;15.20;99.90
59146;DHT22;44928;53.074;6.646;2023-08-20T04:45:14;15.20;99.90
59146;DHT22;44928;53.074;6.646;2023-08-20T04:47:42;15.20;99.90
59146;DHT22;44928;53.074;6.646;2023-08-20T04:50:08;15.20;99.90
59146;DHT22;44928;53.074;6.646;2023-08-20T04:52:34;15.20;99.90
59146;DHT22;44928;53.074;6.646;2023-08-20T04:55:03;15.20;99.90
59146;DHT22;44928;53.074;6.646;2023-08-20T04:57:29;15.20;99.90
59146;DHT22;44928;53.074;6.646;2023-08-20T04:59:55;15.20;99.90
59146;DHT22;44928;53.074;6.646;2023-08-20T05:02:21;15.10;99.90
59146;DHT22;44928;53.074;6.646;2023-08-20T05:04:46;15.10;99.90
59146;DHT22;44928;53.074;6.646;2023-08-20T05:07:12;15.10;99.90
59146;DHT22;44928;53.074;6.646;2023-08-20T05:09:38;15.10;99.90
59146;DHT22;44928;53.074;6.646;2023-08-20T05:12:04;15.20;99.90
59146;DHT22;44928;53.074;6.646;2023-08-20T05:14:30;15.10;99.90
59146;DHT22;44928;53.074;6.646;2023-08-20T05:16:57;15.10;99.90
59146;DHT22;44928;53.074;6.646;2023-08-20T05:19:22;15.10;99.90
59146;DHT22;44928;53.074;6.646;2023-08-20T05:21:49;15.10;99.90
59146;DHT22;44928;53.074;6.646;2023-08-20T05:24:14;15.10;99.90
59146;DHT22;44928;53.074;6.646;2023-08-20T05:26:40;15.10;99.90
59146;DHT22;44928;53.074;6.646;2023-08-20T05:29:06;15.10;99.90
59146;DHT22;44928;53.074;6.646;2023-08-20T05:31:32;15.10;99.90
59146;DHT22;44928;53.074;6.646;2023-08-20T05:33:58;15.10;99.90
59146;DHT22;44928;53.074;6.646;2023-08-20T05:36:23;15.20;99.90
59146;DHT22;44928;53.074;6.646;2023-08-20T05:38:49;15.20;99.90
59146;DHT22;44928;53.074;6.646;2023-08-20T05:41:15;15.20;99.90
59146;DHT22;44928;53.074;6.646;2023-08-20T05:43:41;15.20;99.90
59146;DHT22;44928;53.074;6.646;2023-08-20T05:46:07;15.20;99.90
59146;DHT22;44928;53.074;6.646;2023-08-20T05:48:33;15.30;99.90
59146;DHT22;44928;53.074;6.646;2023-08-20T05:50:59;15.30;99.90
59146;DHT22;44928;53.074;6.646;2023-08-20T05:53:25;15.30;99.90
59146;DHT22;44928;53.074;6.646;2023-08-20T05:55:50;15.30;99.90
59146;DHT22;44928;53.074;6.646;2023-08-20T05:58:16;15.30;99.90
59146;DHT22;44928;53.074;6.646;2023-08-20T06:00:42;15.30;99.90
59146;DHT22;44928;53.074;6.646;2023-08-20T06:03:08;15.40;99.90
59146;DHT22;44928;53.074;6.646;2023-08-20T06:05:34;15.40;99.90
59146;DHT22;44928;53.074;6.646;2023-08-20T06:08:00;15.50;99.90
59146;DHT22;44928;53.074;6.646;2023-08-20T06:10:26;15.50;99.90
59146;DHT22;44928;53.074;6.646;2023-08-20T06:12:52;15.50;99.90
59146;DHT22;44928;53.074;6.646;2023-08-20T06:15:18;15.60;99.90
59146;DHT22;44928;53.074;6.646;2023-08-20T06:17:44;15.60;99.90
59146;DHT22;44928;53.074;6.646;2023-08-20T06:20:10;15.60;99.90
59146;DHT22;44928;53.074;6.646;2023-08-20T06:22:38;15.70;99.90
59146;DHT22;44928;53.074;6.646;2023-08-20T06:25:04;15.80;99.90
59146;DHT22;44928;53.074;6.646;2023-08-20T06:27:30;15.90;99.90
59146;DHT22;44928;53.074;6.646;2023-08-20T06:29:56;15.90;99.90
59146;DHT22;44928;53.074;6.646;2023-08-20T06:32:23;16.00;99.90
59146;DHT22;44928;53.074;6.646;2023-08-20T06:34:49;16.00;99.90
59146;DHT22;44928;53.074;6.646;2023-08-20T06:37:15;16.10;99.90
59146;DHT22;44928;53.074;6.646;2023-08-20T06:39:41;16.20;99.90
59146;DHT22;44928;53.074;6.646;2023-08-20T06:42:07;16.20;99.90
59146;DHT22;44928;53.074;6.646;2023-08-20T06:44:33;16.30;99.90
59146;DHT22;44928;53.074;6.646;2023-08-20T06:47:00;16.40;99.90
59146;DHT22;44928;53.074;6.646;2023-08-20T06:49:26;16.40;99.90
59146;DHT22;44928;53.074;6.646;2023-08-20T06:51:52;16.50;99.90
59146;DHT22;44928;53.074;6.646;2023-08-20T06:54:18;16.60;99.90
59146;DHT22;44928;53.074;6.646;2023-08-20T06:56:44;16.70;99.90
59146;DHT22;44928;53.074;6.646;2023-08-20T06:59:10;16.70;99.90
59146;DHT22;44928;53.074;6.646;2023-08-20T07:01:36;16.80;99.90
59146;DHT22;44928;53.074;6.646;2023-08-20T07:04:02;16.90;99.90
59146;DHT22;44928;53.074;6.646;2023-08-20T07:06:28;17.00;99.90
59146;DHT22;44928;53.074;6.646;2023-08-20T07:08:54;17.00;99.90
59146;DHT22;44928;53.074;6.646;2023-08-20T07:11:19;17.10;99.90
59146;DHT22;44928;53.074;6.646;2023-08-20T07:13:45;17.20;99.90
59146;DHT22;44928;53.074;6.646;2023-08-20T07:16:11;17.30;99.90
59146;DHT22;44928;53.074;6.646;2023-08-20T07:18:37;17.30;99.90
59146;DHT22;44928;53.074;6.646;2023-08-20T07:21:03;17.40;99.90
59146;DHT22;44928;53.074;6.646;2023-08-20T07:23:28;17.50;99.90
59146;DHT22;44928;53.074;6.646;2023-08-20T07:26:14;17.60;99.90
59146;DHT22;44928;53.074;6.646;2023-08-20T07:28:41;17.70;99.90
59146;DHT22;44928;53.074;6.646;2023-08-20T07:31:22;17.80;99.90
59146;DHT22;44928;53.074;6.646;2023-08-20T07:33:49;17.90;99.90
59146;DHT22;44928;53.074;6.646;2023-08-20T07:36:15;18.00;99.90
59146;DHT22;44928;53.074;6.646;2023-08-20T07:38:42;18.10;99.90
59146;DHT22;44928;53.074;6.646;2023-08-20T07:41:09;18.20;99.90
59146;DHT22;44928;53.074;6.646;2023-08-20T07:43:35;18.20;99.90
59146;DHT22;44928;53.074;6.646;2023-08-20T07:46:01;18.30;99.90
59146;DHT22;44928;53.074;6.646;2023-08-20T07:48:27;18.40;99.90
59146;DHT22;44928;53.074;6.646;2023-08-20T07:50:53;18.50;99.90
59146;DHT22;44928;53.074;6.646;2023-08-20T07:53:19;18.50;99.90
59146;DHT22;44928;53.074;6.646;2023-08-20T07:55:44;18.60;99.90
59146;DHT22;44928;53.074;6.646;2023-08-20T07:58:10;18.60;99.90
59146;DHT22;44928;53.074;6.646;2023-08-20T08:00:36;18.70;99.90
59146;DHT22;44928;53.074;6.646;2023-08-20T08:03:02;18.80;99.90
59146;DHT22;44928;53.074;6.646;2023-08-20T08:05:28;18.90;99.90
59146;DHT22;44928;53.074;6.646;2023-08-20T08:07:54;18.90;99.90
59146;DHT22;44928;53.074;6.646;2023-08-20T08:10:20;19.00;99.90
59146;DHT22;44928;53.074;6.646;2023-08-20T08:12:46;19.00;99.90
59146;DHT22;44928;53.074;6.646;2023-08-20T08:15:12;19.10;99.90
59146;DHT22;44928;53.074;6.646;2023-08-20T08:17:38;19.20;99.90
59146;DHT22;44928;53.074;6.646;2023-08-20T08:20:05;19.20;99.90
59146;DHT22;44928;53.074;6.646;2023-08-20T08:22:31;19.30;99.90
59146;DHT22;44928;53.074;6.646;2023-08-20T08:24:57;19.30;99.90
59146;DHT22;44928;53.074;6.646;2023-08-20T08:27:22;19.40;99.90
59146;DHT22;44928;53.074;6.646;2023-08-20T08:29:48;19.40;99.90
59146;DHT22;44928;53.074;6.646;2023-08-20T08:32:14;19.50;99.90
59146;DHT22;44928;53.074;6.646;2023-08-20T08:34:40;19.60;99.90
59146;DHT22;44928;53.074;6.646;2023-08-20T08:37:06;19.70;99.90
59146;DHT22;44928;53.074;6.646;2023-08-20T08:39:32;19.80;99.90
59146;DHT22;44928;53.074;6.646;2023-08-20T08:42:03;19.80;99.90
59146;DHT22;44928;53.074;6.646;2023-08-20T08:44:33;19.90;99.90
59146;DHT22;44928;53.074;6.646;2023-08-20T08:47:01;19.90;99.90
59146;DHT22;44928;53.074;6.646;2023-08-20T08:49:27;20.00;99.90
59146;DHT22;44928;53.074;6.646;2023-08-20T08:51:57;20.10;99.90
59146;DHT22;44928;53.074;6.646;2023-08-20T08:54:23;20.20;99.90
59146;DHT22;44928;53.074;6.646;2023-08-20T08:56:50;20.30;99.90
59146;DHT22;44928;53.074;6.646;2023-08-20T08:59:16;20.30;99.90
59146;DHT22;44928;53.074;6.646;2023-08-20T09:01:41;20.40;99.90
59146;DHT22;44928;53.074;6.646;2023-08-20T09:04:07;20.50;99.90
59146;DHT22;44928;53.074;6.646;2023-08-20T09:06:50;20.60;99.90
59146;DHT22;44928;53.074;6.646;2023-08-20T09:09:17;20.70;99.90
59146;DHT22;44928;53.074;6.646;2023-08-20T09:11:43;20.80;99.90
59146;DHT22;44928;53.074;6.646;2023-08-20T09:14:29;20.90;99.90
59146;DHT22;44928;53.074;6.646;2023-08-20T09:16:59;20.90;99.90
59146;DHT22;44928;53.074;6.646;2023-08-20T09:19:29;21.00;99.90
59146;DHT22;44928;53.074;6.646;2023-08-20T09:21:58;21.20;99.90
59146;DHT22;44928;53.074;6.646;2023-08-20T09:24:39;21.20;99.90
59146;DHT22;44928;53.074;6.646;2023-08-20T09:27:05;21.30;99.90
59146;DHT22;44928;53.074;6.646;2023-08-20T09:29:32;21.40;99.90
59146;DHT22;44928;53.074;6.646;2023-08-20T09:32:02;21.50;99.90
59146;DHT22;44928;53.074;6.646;2023-08-20T09:34:38;21.60;99.90
59146;DHT22;44928;53.074;6.646;2023-08-20T09:37:13;21.70;99.90
59146;DHT22;44928;53.074;6.646;2023-08-20T09:39:40;21.80;99.90
59146;DHT22;44928;53.074;6.646;2023-08-20T09:42:08;21.90;99.90
59146;DHT22;44928;53.074;6.646;2023-08-20T09:44:36;22.00;99.90
59146;DHT22;44928;53.074;6.646;2023-08-20T09:47:09;22.20;99.90
59146;DHT22;44928;53.074;6.646;2023-08-20T09:49:43;22.30;99.90
59146;DHT22;44928;53.074;6.646;2023-08-20T09:52:11;22.40;99.90
59146;DHT22;44928;53.074;6.646;2023-08-20T09:59:54;22.40;99.90
59146;DHT22;44928;53.074;6.646;2023-08-20T10:02:21;22.50;99.90
59146;DHT22;44928;53.074;6.646;2023-08-20T10:04:47;22.60;99.90
59146;DHT22;44928;53.074;6.646;2023-08-20T10:07:14;22.80;99.90
59146;DHT22;44928;53.074;6.646;2023-08-20T10:09:40;23.00;99.90
59146;DHT22;44928;53.074;6.646;2023-08-20T10:12:08;23.10;99.90
59146;DHT22;44928;53.074;6.646;2023-08-20T10:14:34;23.20;99.90
59146;DHT22;44928;53.074;6.646;2023-08-20T10:17:07;23.20;99.90
59146;DHT22;44928;53.074;6.646;2023-08-20T10:19:33;23.20;99.90
59146;DHT22;44928;53.074;6.646;2023-08-20T10:22:02;23.20;99.90
59146;DHT22;44928;53.074;6.646;2023-08-20T10:24:28;23.40;99.90
59146;DHT22;44928;53.074;6.646;2023-08-20T10:27:10;23.60;99.90
59146;DHT22;44928;53.074;6.646;2023-08-20T10:29:38;23.80;99.90
59146;DHT22;44928;53.074;6.646;2023-08-20T10:32:14;23.90;99.90
59146;DHT22;44928;53.074;6.646;2023-08-20T10:34:49;23.90;99.90
59146;DHT22;44928;53.074;6.646;2023-08-20T10:37:15;23.90;99.90
59146;DHT22;44928;53.074;6.646;2023-08-20T10:39:41;24.00;99.90
59146;DHT22;44928;53.074;6.646;2023-08-20T10:42:21;24.00;99.90
59146;DHT22;44928;53.074;6.646;2023-08-20T10:45:04;24.20;99.90
59146;DHT22;44928;53.074;6.646;2023-08-20T10:47:44;24.40;99.90
59146;DHT22;44928;53.074;6.646;2023-08-20T10:50:11;24.50;99.90
59146;DHT22;44928;53.074;6.646;2023-08-20T10:52:50;24.60;99.90
59146;DHT22;44928;53.074;6.646;2023-08-20T10:55:21;24.80;99.90
59146;DHT22;44928;53.074;6.646;2023-08-20T10:57:57;24.80;99.90
59146;DHT22;44928;53.074;6.646;2023-08-20T11:00:25;25.00;99.90
59146;DHT22;44928;53.074;6.646;2023-08-20T11:02:52;25.10;99.90
59146;DHT22;44928;53.074;6.646;2023-08-20T11:05:20;25.10;99.90
59146;DHT22;44928;53.074;6.646;2023-08-20T11:07:49;25.10;99.90
59146;DHT22;44928;53.074;6.646;2023-08-20T11:10:15;25.20;99.90
59146;DHT22;44928;53.074;6.646;2023-08-20T11:12:50;25.30;99.90
59146;DHT22;44928;53.074;6.646;2023-08-20T11:15:17;25.50;99.90
59146;DHT22;44928;53.074;6.646;2023-08-20T11:17:45;25.70;99.90
59146;DHT22;44928;53.074;6.646;2023-08-20T11:20:13;25.90;99.90
59146;DHT22;44928;53.074;6.646;2023-08-20T11:22:40;26.00;99.90
59146;DHT22;44928;53.074;6.646;2023-08-20T11:25:15;26.10;99.90
59146;DHT22;44928;53.074;6.646;2023-08-20T11:27:43;26.30;99.90
59146;DHT22;44928;53.074;6.646;2023-08-20T11:30:10;26.40;99.90
59146;DHT22;44928;53.074;6.646;2023-08-20T11:32:39;26.50;99.90
59146;DHT22;44928;53.074;6.646;2023-08-20T11:35:08;26.70;99.90
59146;DHT22;44928;53.074;6.646;2023-08-20T11:37:34;26.70;99.90
59146;DHT22;44928;53.074;6.646;2023-08-20T11:40:00;26.60;99.70
59146;DHT22;44928;53.074;6.646;2023-08-20T11:42:26;26.50;99.90
59146;DHT22;44928;53.074;6.646;2023-08-20T11:44:55;26.60;99.90
59146;DHT22;44928;53.074;6.646;2023-08-20T11:47:22;26.70;99.90
59146;DHT22;44928;53.074;6.646;2023-08-20T11:49:47;26.70;99.70
59146;DHT22;44928;53.074;6.646;2023-08-20T11:52:13;26.70;99.30
59146;DHT22;44928;53.074;6.646;2023-08-20T11:54:39;26.60;97.60
59146;DHT22;44928;53.074;6.646;2023-08-20T11:57:06;26.50;96.80
59146;DHT22;44928;53.074;6.646;2023-08-20T11:59:33;26.40;97.20
59146;DHT22;44928;53.074;6.646;2023-08-20T12:02:01;26.50;97.60
59146;DHT22;44928;53.074;6.646;2023-08-20T12:04:29;26.50;96.90
59146;DHT22;44928;53.074;6.646;2023-08-20T12:07:08;26.60;96.30
59146;DHT22;44928;53.074;6.646;2023-08-20T12:09:34;26.50;95.50
59146;DHT22;44928;53.074;6.646;2023-08-20T12:12:00;26.50;95.90
59146;DHT22;44928;53.074;6.646;2023-08-20T12:14:26;26.60;96.10
59146;DHT22;44928;53.074;6.646;2023-08-20T12:16:55;26.50;95.60
59146;DHT22;44928;53.074;6.646;2023-08-20T12:19:21;26.60;95.60
59146;DHT22;44928;53.074;6.646;2023-08-20T12:21:49;26.40;96.10
59146;DHT22;44928;53.074;6.646;2023-08-20T12:24:15;26.20;96.10
59146;DHT22;44928;53.074;6.646;2023-08-20T12:26:41;26.20;96.30
59146;DHT22;44928;53.074;6.646;2023-08-20T12:29:07;26.10;96.50
59146;DHT22;44928;53.074;6.646;2023-08-20T12:31:34;26.20;96.40
59146;DHT22;44928;53.074;6.646;2023-08-20T12:34:00;26.20;96.40
59146;DHT22;44928;53.074;6.646;2023-08-20T12:36:27;26.00;95.30
59146;DHT22;44928;53.074;6.646;2023-08-20T12:38:53;26.00;95.40
59146;DHT22;44928;53.074;6.646;2023-08-20T12:41:20;26.00;95.20
59146;DHT22;44928;53.074;6.646;2023-08-20T12:43:46;25.90;95.30
59146;DHT22;44928;53.074;6.646;2023-08-20T12:46:11;25.90;95.20
59146;DHT22;44928;53.074;6.646;2023-08-20T12:48:40;25.90;94.90
59146;DHT22;44928;53.074;6.646;2023-08-20T12:51:06;25.80;94.40
59146;DHT22;44928;53.074;6.646;2023-08-20T12:53:33;25.60;94.40
59146;DHT22;44928;53.074;6.646;2023-08-20T12:55:58;25.60;94.60
59146;DHT22;44928;53.074;6.646;2023-08-20T12:58:24;25.60;94.90
59146;DHT22;44928;53.074;6.646;2023-08-20T13:00:50;25.60;95.30
59146;DHT22;44928;53.074;6.646;2023-08-20T13:03:17;25.60;95.10
59146;DHT22;44928;53.074;6.646;2023-08-20T13:05:44;25.70;95.50
59146;DHT22;44928;53.074;6.646;2023-08-20T13:08:10;25.70;95.40
59146;DHT22;44928;53.074;6.646;2023-08-20T13:10:41;25.70;95.80
59146;DHT22;44928;53.074;6.646;2023-08-20T13:13:09;25.60;95.60
59146;DHT22;44928;53.074;6.646;2023-08-20T13:15:36;25.70;95.20
59146;DHT22;44928;53.074;6.646;2023-08-20T13:18:02;25.70;95.50
59146;DHT22;44928;53.074;6.646;2023-08-20T13:20:30;25.70;95.60
59146;DHT22;44928;53.074;6.646;2023-08-20T13:22:57;25.60;95.90
59146;DHT22;44928;53.074;6.646;2023-08-20T13:25:24;25.60;96.60
59146;DHT22;44928;53.074;6.646;2023-08-20T13:27:50;25.50;96.80
59146;DHT22;44928;53.074;6.646;2023-08-20T13:30:16;25.50;96.30
59146;DHT22;44928;53.074;6.646;2023-08-20T13:32:42;25.40;96.50
59146;DHT22;44928;53.074;6.646;2023-08-20T13:35:07;25.20;96.70
59146;DHT22;44928;53.074;6.646;2023-08-20T13:37:34;25.20;97.50
59146;DHT22;44928;53.074;6.646;2023-08-20T13:40:00;25.20;97.00
59146;DHT22;44928;53.074;6.646;2023-08-20T13:42:26;25.20;97.00
59146;DHT22;44928;53.074;6.646;2023-08-20T13:44:52;25.20;97.00
59146;DHT22;44928;53.074;6.646;2023-08-20T13:47:18;25.20;96.80
59146;DHT22;44928;53.074;6.646;2023-08-20T13:49:44;25.20;96.70
59146;DHT22;44928;53.074;6.646;2023-08-20T13:52:10;25.30;96.90
59146;DHT22;44928;53.074;6.646;2023-08-20T13:54:36;25.30;96.80
59146;DHT22;44928;53.074;6.646;2023-08-20T13:57:05;25.30;96.50
59146;DHT22;44928;53.074;6.646;2023-08-20T13:59:31;25.30;96.50
59146;DHT22;44928;53.074;6.646;2023-08-20T14:01:58;25.20;96.50
59146;DHT22;44928;53.074;6.646;2023-08-20T14:04:24;25.30;96.70
59146;DHT22;44928;53.074;6.646;2023-08-20T14:06:50;25.30;96.50
59146;DHT22;44928;53.074;6.646;2023-08-20T14:09:16;25.30;96.60
59146;DHT22;44928;53.074;6.646;2023-08-20T14:11:43;25.30;96.70
59146;DHT22;44928;53.074;6.646;2023-08-20T14:14:09;25.40;97.10
59146;DHT22;44928;53.074;6.646;2023-08-20T14:16:35;25.40;96.80
59146;DHT22;44928;53.074;6.646;2023-08-20T14:19:01;25.30;97.20
59146;DHT22;44928;53.074;6.646;2023-08-20T14:21:27;25.40;97.20
59146;DHT22;44928;53.074;6.646;2023-08-20T14:23:53;25.30;97.00
59146;DHT22;44928;53.074;6.646;2023-08-20T14:26:21;25.20;96.70
59146;DHT22;44928;53.074;6.646;2023-08-20T14:28:47;25.20;97.00
59146;DHT22;44928;53.074;6.646;2023-08-20T14:31:13;25.20;97.30
59146;DHT22;44928;53.074;6.646;2023-08-20T14:33:42;25.20;97.70
59146;DHT22;44928;53.074;6.646;2023-08-20T14:36:10;25.30;97.90
59146;DHT22;44928;53.074;6.646;2023-08-20T14:38:36;25.30;97.70
59146;DHT22;44928;53.074;6.646;2023-08-20T14:41:03;25.20;97.50
59146;DHT22;44928;53.074;6.646;2023-08-20T14:43:29;25.20;97.80
59146;DHT22;44928;53.074;6.646;2023-08-20T14:45:56;25.20;96.90
59146;DHT22;44928;53.074;6.646;2023-08-20T14:48:24;25.20;96.40
59146;DHT22;44928;53.074;6.646;2023-08-20T14:50:51;25.20;96.40
59146;DHT22;44928;53.074;6.646;2023-08-20T14:53:17;25.20;96.30
59146;DHT22;44928;53.074;6.646;2023-08-20T14:55:44;25.30;96.40
59146;DHT22;44928;53.074;6.646;2023-08-20T14:58:10;25.30;95.60
59146;DHT22;44928;53.074;6.646;2023-08-20T15:00:36;25.30;95.30
59146;DHT22;44928;53.074;6.646;2023-08-20T15:03:03;25.30;95.60
59146;DHT22;44928;53.074;6.646;2023-08-20T15:05:29;25.30;95.90
59146;DHT22;44928;53.074;6.646;2023-08-20T15:07:56;25.20;96.10
59146;DHT22;44928;53.074;6.646;2023-08-20T15:10:22;25.20;96.50
59146;DHT22;44928;53.074;6.646;2023-08-20T15:12:48;25.20;96.70
59146;DHT22;44928;53.074;6.646;2023-08-20T15:15:14;25.20;96.30
59146;DHT22;44928;53.074;6.646;2023-08-20T15:17:40;25.10;96.10
59146;DHT22;44928;53.074;6.646;2023-08-20T15:20:06;25.10;96.00
59146;DHT22;44928;53.074;6.646;2023-08-20T15:22:35;25.10;96.30
59146;DHT22;44928;53.074;6.646;2023-08-20T15:25:01;25.10;96.10
59146;DHT22;44928;53.074;6.646;2023-08-20T15:27:28;25.10;95.70
59146;DHT22;44928;53.074;6.646;2023-08-20T15:29:54;25.10;95.20
59146;DHT22;44928;53.074;6.646;2023-08-20T15:32:20;25.00;94.70
59146;DHT22;44928;53.074;6.646;2023-08-20T15:34:52;25.00;94.90
59146;DHT22;44928;53.074;6.646;2023-08-20T15:37:18;24.90;95.70
59146;DHT22;44928;53.074;6.646;2023-08-20T15:39:44;24.90;95.80
59146;DHT22;44928;53.074;6.646;2023-08-20T15:42:10;24.90;96.20
59146;DHT22;44928;53.074;6.646;2023-08-20T15:44:36;24.80;96.60
59146;DHT22;44928;53.074;6.646;2023-08-20T15:47:02;24.80;96.70